Estación de El Carmen

Ultimos registro cada 15 minutos 95
Estación Fecha / Hora Temperatura Humedad Lluvia Velocidad Dirección Radiación Presion
95 El Carmen 03-09-2026 23:30 8,9 85,1 0 0,5 142 0,6 981,7
94 El Carmen 03-09-2026 23:15 9 84,2 0 0 139 0,6 981,7
93 El Carmen 03-09-2026 23:00 9,3 82,7 0 0,5 138 0,6 981,5
92 El Carmen 03-09-2026 22:45 9,8 80,7 0 1 135 0,6 981,7
91 El Carmen 03-09-2026 22:30 10,1 79,3 0 1 138 0,6 981,5
90 El Carmen 03-09-2026 22:15 10,4 77,9 0 2 142 0,6 981,5
89 El Carmen 03-09-2026 22:00 10,4 77,4 0 2 145 0,6 981,4
88 El Carmen 03-09-2026 21:45 10,7 76,5 0 2 150 0,6 981,3
87 El Carmen 03-09-2026 21:30 10,9 76 0 2 152 0,6 981,4
86 El Carmen 03-09-2026 21:15 10,8 75,7 0 1,5 147 0,6 981,3
85 El Carmen 03-09-2026 21:00 10,7 75,1 0 1,5 149 0,6 981,2
84 El Carmen 03-09-2026 20:45 10,7 73,7 0 0,5 142 0,6 981
83 El Carmen 03-09-2026 20:30 10,9 72 0 1,5 143 0,6 981
82 El Carmen 03-09-2026 20:15 11,3 70,5 0 1,5 143 0,6 980,9
81 El Carmen 03-09-2026 20:00 11,2 70,3 0 1 142 0,6 980,8
80 El Carmen 03-09-2026 19:45 11,3 68,9 0 1 140 0,6 980,6
79 El Carmen 03-09-2026 19:30 11,3 67,6 0 1 140 0,6 980,5
78 El Carmen 03-09-2026 19:15 12 64,4 0 1 145 0,6 980,4
77 El Carmen 03-09-2026 19:00 12,1 62,6 0 1 147 0,6 980,4
76 El Carmen 03-09-2026 18:45 12,3 61 0 1 150 0,6 980,1
75 El Carmen 03-09-2026 18:30 12,8 58,3 0 1 152 1,9 980,1
74 El Carmen 03-09-2026 18:15 13,5 54,9 0 1,5 157 6,9 980
73 El Carmen 03-09-2026 18:00 14,5 51 0 2 154 44,4 979,9
72 El Carmen 03-09-2026 17:45 15,2 47,7 0 2,5 153 85,6 979,6
71 El Carmen 03-09-2026 17:30 15,9 47,1 0 2,5 154 125,6 979,6
70 El Carmen 03-09-2026 17:15 15,9 46,7 0 3 159 163,1 979,4
69 El Carmen 03-09-2026 17:00 16,4 47,3 0 3 157 21,9 979,6
68 El Carmen 03-09-2026 16:45 16,8 46,8 0 2,5 153 155,6 979,5
67 El Carmen 03-09-2026 16:30 16,9 47,7 0 3 149 25,6 979,7
66 El Carmen 03-09-2026 16:15 17 45,4 0 3 150 318,1 979,6
65 El Carmen 03-09-2026 16:00 17,1 48,4 0 3 146 351,9 979,7
64 El Carmen 03-09-2026 15:45 17 49 0 3,5 152 384,4 979,6
63 El Carmen 03-09-2026 15:30 17,6 51,6 0 3 143 415,6 979,7
62 El Carmen 03-09-2026 15:15 17 54,2 0 3 140 443,1 979,6
61 El Carmen 03-09-2026 15:00 16,9 54,1 0 3 149 469,4 979,7
60 El Carmen 03-09-2026 14:45 17,7 55,1 0 2,5 150 493,1 979,9
59 El Carmen 03-09-2026 14:30 17 60,1 0 3 143 515,6 979,8
58 El Carmen 03-09-2026 14:15 16,8 60,1 0 3 146 534,4 980,1
57 El Carmen 03-09-2026 14:00 16,2 62 0 3 146 549,4 980,4
56 El Carmen 03-09-2026 13:45 16,2 64,6 0 3,5 139 560,6 980,5
55 El Carmen 03-09-2026 13:30 15,5 69,7 0 3 150 569,4 980,6
54 El Carmen 03-09-2026 13:15 15 69,9 0 3 152 578,1 980,8
53 El Carmen 03-09-2026 13:00 14,8 75 0 3 139 579,4 981
52 El Carmen 03-09-2026 12:45 14,3 76,4 0 3 139 578,1 981,1
51 El Carmen 03-09-2026 12:30 14,1 77,9 0 3 145 579,4 981,3
50 El Carmen 03-09-2026 12:15 14,1 79,6 0 2,5 138 571,9 981,4
49 El Carmen 03-09-2026 12:00 13,1 81,4 0 2,5 128 564,4 981,4
48 El Carmen 03-09-2026 11:45 12,9 81,4 0 2,5 133 553,1 981,7
47 El Carmen 03-09-2026 11:30 12,8 82,7 0 2,5 133 553,1 981,9
46 El Carmen 03-09-2026 11:15 12,7 85,9 0 2 152 558,1 981,9
45 El Carmen 03-09-2026 11:00 10,9 87,6 0 2 152 221,9 981,9
44 El Carmen 03-09-2026 10:45 10,9 88,7 0 1,5 150 224,4 981,9
43 El Carmen 03-09-2026 10:30 10,4 89,2 0 2 147 203,1 981,8
42 El Carmen 03-09-2026 10:15 10,2 89,9 0 2 139 160,6 981,9
41 El Carmen 03-09-2026 10:00 10 90,1 0 2 142 133,1 981,9
40 El Carmen 03-09-2026 09:45 9,6 90,4 0 2 145 109,4 982
39 El Carmen 03-09-2026 09:30 9,3 91,3 0 2,5 146 101,9 981,8
38 El Carmen 03-09-2026 09:15 9,2 91,3 0 2,5 147 86,9 981,6
37 El Carmen 03-09-2026 09:00 9 92,1 0 2,5 143 103,1 981,5
36 El Carmen 03-09-2026 08:45 8,6 92,4 0 2 142 70,6 981,5
35 El Carmen 03-09-2026 08:30 8,6 92,5 0 2,5 150 50,6 981,5
34 El Carmen 03-09-2026 08:15 8,4 92,6 0 2,5 145 38,1 981,2
33 El Carmen 03-09-2026 08:00 8,4 92,7 0 2 149 28,1 981,3
32 El Carmen 03-09-2026 07:45 8,5 92,5 0 1 142 19,4 981
31 El Carmen 03-09-2026 07:30 8,3 92,5 0 1,5 142 5,6 981
30 El Carmen 03-09-2026 07:15 8,4 92 0 2 146 0,6 981
29 El Carmen 03-09-2026 07:00 8,4 91,8 0 2,5 152 0,6 981
28 El Carmen 03-09-2026 06:45 8,6 91,5 0 2 157 0,6 981
27 El Carmen 03-09-2026 06:30 8,6 90,9 0 2 149 0,6 980,9
26 El Carmen 03-09-2026 06:15 8,7 90,7 0 2,5 145 0,6 980,8
25 El Carmen 03-09-2026 06:00 8,8 90,4 0 2 136 0,6 980,6
24 El Carmen 03-09-2026 05:45 8,9 90,3 0 2 139 0,6 980,5
23 El Carmen 03-09-2026 05:30 9 90 0 1,5 152 0,6 980,5
22 El Carmen 03-09-2026 05:15 9 90 0 0,5 152 0,6 980,5
21 El Carmen 03-09-2026 05:00 9,1 89,9 0 0,5 157 0,6 980,3
20 El Carmen 03-09-2026 04:45 9,2 89,8 0 1,5 145 0,6 980,4
19 El Carmen 03-09-2026 04:30 9,3 90 0 2,5 143 0,6 980,2
18 El Carmen 03-09-2026 04:15 9,4 90,3 0 2,5 140 0,6 980,2
17 El Carmen 03-09-2026 04:00 9,4 90,8 0 3 145 0,6 979,9
16 El Carmen 03-09-2026 03:45 9,4 91 0 3,5 146 0,6 980
15 El Carmen 03-09-2026 03:30 9,6 91,5 0 4 146 0,6 980,3
14 El Carmen 03-09-2026 03:15 9,9 91,7 0 3,5 149 0,6 980,3
13 El Carmen 03-09-2026 03:00 10,4 91,7 0 3 146 0,6 980,3
12 El Carmen 03-09-2026 02:45 10,9 91,2 0 3,5 143 0,6 980,2
11 El Carmen 03-09-2026 02:30 11,2 90,6 0 3 147 0,6 980,2
10 El Carmen 03-09-2026 02:15 11,5 89,7 0 3 149 0,6 980,2
9 El Carmen 03-09-2026 02:00 11,7 88,9 0 2,5 147 0,6 980,1
8 El Carmen 03-09-2026 01:45 11,8 88,4 0 3 149 0,6 980,1
7 El Carmen 03-09-2026 01:30 11,9 88,1 0 2,5 150 0,6 980,1
6 El Carmen 03-09-2026 01:15 12 87,9 0 2 147 0,6 980
5 El Carmen 03-09-2026 01:00 12,1 87,5 0 2 153 0,6 980,1
4 El Carmen 03-09-2026 00:45 12,2 88,1 0 1,5 150 0,6 980,1
3 El Carmen 03-09-2026 00:30 12,3 88,6 0 1 146 0,6 980,1
2 El Carmen 03-09-2026 00:15 12,3 89,4 0 0,5 152 0,6 979,9
1 El Carmen 03-09-2026 00:00 12,4 89,4 0 1 161 0,6 980